createdAt,value
2023-01-04T00:01:26.559Z,6.96
2023-01-04T00:03:53.654Z,6.95
2023-01-04T00:06:21.338Z,6.93
2023-01-04T00:08:48.715Z,6.94
2023-01-04T00:11:19.318Z,6.89
2023-01-04T00:13:48.454Z,6.87
2023-01-04T00:16:19.616Z,6.85
2023-01-04T00:18:47.266Z,6.82
2023-01-04T00:21:17.802Z,6.77
2023-01-04T00:23:48.082Z,6.74
2023-01-04T00:26:19.302Z,6.72
2023-01-04T00:28:53.731Z,6.69
2023-01-04T00:31:23.128Z,6.67
2023-01-04T00:33:57.988Z,6.65
2023-01-04T00:36:26.128Z,6.64
2023-01-04T00:39:09.619Z,6.62
2023-01-04T00:42:01.739Z,6.60
2023-01-04T00:44:30.076Z,6.59
2023-01-04T00:46:57.650Z,6.57
2023-01-04T00:49:25.551Z,6.55
2023-01-04T00:51:52.510Z,6.54
2023-01-04T00:54:20.613Z,6.54
2023-01-04T00:56:48.258Z,6.52
2023-01-04T00:59:19.201Z,6.50
2023-01-04T01:01:47.371Z,6.49
2023-01-04T01:04:18.207Z,6.47
2023-01-04T01:06:45.453Z,6.46
2023-01-04T01:09:12.907Z,6.43
2023-01-04T01:11:40.187Z,6.43
2023-01-04T01:14:11.896Z,6.39
2023-01-04T01:16:54.493Z,6.38
2023-01-04T01:19:23.681Z,6.36
2023-01-04T01:21:50.607Z,6.33
2023-01-04T01:24:19.624Z,6.31
2023-01-04T01:26:46.705Z,6.28
2023-01-04T01:29:13.713Z,6.28
2023-01-04T01:31:41.335Z,6.26
2023-01-04T01:34:08.659Z,6.26
2023-01-04T01:36:36.399Z,6.26
2023-01-04T01:39:04.613Z,6.24
2023-01-04T01:41:35.068Z,6.25
2023-01-04T01:44:06.877Z,6.24
2023-01-04T01:46:38.821Z,6.23
2023-01-04T01:49:37.262Z,6.20
2023-01-04T01:52:11.231Z,6.20
2023-01-04T01:54:47.028Z,6.19
2023-01-04T01:57:19.622Z,6.19
2023-01-04T01:59:51.148Z,6.17
2023-01-04T02:02:18.453Z,6.15
2023-01-04T02:04:50.491Z,6.15
2023-01-04T02:07:22.473Z,6.14
2023-01-04T02:09:50.889Z,6.14
2023-01-04T02:12:18.429Z,6.12
2023-01-04T02:14:49.190Z,6.12
2023-01-04T02:18:07.021Z,6.13
2023-01-04T02:21:11.577Z,6.12
2023-01-04T02:24:18.273Z,6.11
2023-01-04T02:27:16.996Z,6.10
2023-01-04T02:30:25.942Z,6.09
2023-01-04T02:33:27.109Z,6.08
2023-01-04T02:36:33.387Z,6.05
2023-01-04T02:39:35.652Z,6.03
2023-01-04T02:42:49.817Z,6.00
2023-01-04T02:45:22.905Z,5.97
2023-01-04T02:48:08.702Z,5.96
2023-01-04T02:50:52.934Z,5.94
2023-01-04T02:53:41.694Z,5.91
2023-01-04T02:56:11.363Z,5.90
2023-01-04T02:58:49.943Z,5.88
2023-01-04T03:01:44.405Z,5.86
2023-01-04T03:05:03.287Z,5.83
2023-01-04T03:07:50.367Z,5.81
2023-01-04T03:10:40.145Z,5.79
2023-01-04T03:13:21.373Z,5.77
2023-01-04T03:15:59.133Z,5.73
2023-01-04T03:18:41.711Z,5.71
2023-01-04T03:21:11.209Z,5.70
2023-01-04T03:23:57.949Z,5.69
2023-01-04T03:26:51.189Z,5.66
2023-01-04T03:29:50.357Z,5.63
2023-01-04T03:33:06.383Z,5.60
2023-01-04T03:35:59.974Z,5.57
2023-01-04T03:38:58.105Z,5.56
2023-01-04T03:41:50.993Z,5.54
2023-01-04T03:44:50.517Z,5.51
2023-01-04T03:47:55.987Z,5.51
2023-01-04T03:50:28.994Z,5.47
2023-01-04T03:52:59.171Z,5.47
2023-01-04T03:55:29.310Z,5.46
2023-01-04T03:57:58.022Z,5.45
2023-01-04T04:00:25.203Z,5.43
2023-01-04T04:02:52.153Z,5.42
2023-01-04T04:05:43.021Z,5.40
2023-01-04T04:08:26.601Z,5.38
2023-01-04T04:10:55.186Z,5.36
2023-01-04T04:13:22.372Z,5.35
2023-01-04T04:15:49.392Z,5.34
2023-01-04T04:18:16.357Z,5.34
2023-01-04T04:20:43.318Z,5.35
2023-01-04T04:23:10.226Z,5.35
2023-01-04T04:25:37.129Z,5.35
2023-01-04T04:28:06.032Z,5.35
2023-01-04T04:30:32.965Z,5.36
2023-01-04T04:32:59.896Z,5.38
2023-01-04T04:35:26.880Z,5.37
2023-01-04T04:37:53.770Z,5.37
2023-01-04T04:40:38.997Z,5.37
2023-01-04T04:43:08.720Z,5.37
2023-01-04T04:45:35.675Z,5.37
2023-01-04T04:48:02.789Z,5.38
2023-01-04T04:50:29.714Z,5.38
2023-01-04T04:52:56.639Z,5.39
2023-01-04T04:55:23.794Z,5.41
2023-01-04T04:57:51.025Z,5.42
2023-01-04T05:00:17.995Z,5.45
2023-01-04T05:02:45.033Z,5.46
2023-01-04T05:05:12.033Z,5.47
2023-01-04T05:07:38.924Z,5.51
2023-01-04T05:10:06.225Z,5.51
2023-01-04T05:12:57.463Z,5.54
2023-01-04T05:15:25.598Z,5.55
2023-01-04T05:17:52.479Z,5.57
2023-01-04T05:20:19.451Z,5.59
2023-01-04T05:22:46.396Z,5.60
2023-01-04T05:25:13.289Z,5.61
2023-01-04T05:27:40.806Z,5.62
2023-01-04T05:30:28.574Z,5.62
2023-01-04T05:32:55.627Z,5.64
2023-01-04T05:35:22.584Z,5.66
2023-01-04T05:37:49.584Z,5.66
2023-01-04T05:40:16.776Z,5.67
2023-01-04T05:42:44.238Z,5.66
2023-01-04T05:45:11.449Z,5.68
2023-01-04T05:47:38.401Z,5.68
2023-01-04T05:50:06.137Z,5.67
2023-01-04T05:52:33.079Z,5.68
2023-01-04T05:55:00.281Z,5.68
2023-01-04T05:57:27.371Z,5.69
2023-01-04T05:59:54.321Z,5.69
2023-01-04T06:02:25.927Z,5.69
2023-01-04T06:04:58.418Z,5.68
2023-01-04T06:07:27.711Z,5.68
2023-01-04T06:09:54.771Z,5.68
2023-01-04T06:12:21.841Z,5.67
2023-01-04T06:14:48.774Z,5.68
2023-01-04T06:17:15.781Z,5.68
2023-01-04T06:19:42.739Z,5.69
2023-01-04T06:22:10.067Z,5.70
2023-01-04T06:24:37.027Z,5.70
2023-01-04T06:27:04.362Z,5.71
2023-01-04T06:29:31.376Z,5.71
2023-01-04T06:31:58.405Z,5.72
2023-01-04T06:34:30.487Z,5.72
2023-01-04T06:36:58.227Z,5.72
2023-01-04T06:39:25.162Z,5.72
2023-01-04T06:41:52.304Z,5.72
2023-01-04T06:44:19.432Z,5.72
2023-01-04T06:46:46.376Z,5.71
2023-01-04T06:49:14.289Z,5.72
2023-01-04T06:51:41.392Z,5.73
2023-01-04T06:54:11.739Z,5.73
2023-01-04T06:56:40.594Z,5.74
2023-01-04T06:59:09.457Z,5.76
2023-01-04T07:01:36.661Z,5.78
2023-01-04T07:04:03.889Z,5.78
2023-01-04T07:06:30.850Z,5.78
2023-01-04T07:08:57.762Z,5.79
2023-01-04T07:11:24.682Z,5.79
2023-01-04T07:13:52.726Z,5.79
2023-01-04T07:16:20.411Z,5.79
2023-01-04T07:18:47.637Z,5.80
2023-01-04T07:21:14.648Z,5.79
2023-01-04T07:23:41.567Z,5.79
2023-01-04T07:26:08.549Z,5.81
2023-01-04T07:28:53.853Z,5.82
2023-01-04T07:31:20.889Z,5.83
2023-01-04T07:33:50.717Z,5.83
2023-01-04T07:36:17.813Z,5.85
2023-01-04T07:38:44.827Z,5.87
2023-01-04T07:41:11.720Z,5.89
2023-01-04T07:43:38.646Z,5.91
2023-01-04T07:46:05.669Z,5.94
2023-01-04T07:48:32.684Z,5.97
2023-01-04T07:50:59.617Z,5.98
2023-01-04T07:53:26.608Z,6.00
2023-01-04T07:55:59.941Z,6.03
2023-01-04T07:58:32.731Z,6.06
2023-01-04T08:01:15.151Z,6.08
2023-01-04T08:03:42.900Z,6.10
2023-01-04T08:06:12.551Z,6.12
2023-01-04T08:08:39.743Z,6.14
2023-01-04T08:11:11.154Z,6.18
2023-01-04T08:13:38.365Z,6.21
2023-01-04T08:16:05.633Z,6.24
2023-01-04T08:18:32.739Z,6.26
2023-01-04T08:21:08.251Z,6.29
2023-01-04T08:23:36.902Z,6.32
2023-01-04T08:26:11.402Z,6.35
2023-01-04T08:28:38.520Z,6.36
2023-01-04T08:31:14.584Z,6.38
2023-01-04T08:33:42.853Z,6.40
2023-01-04T08:36:29.048Z,6.43
2023-01-04T08:39:06.069Z,6.44
2023-01-04T08:42:02.115Z,6.47
2023-01-04T08:44:34.450Z,6.49
2023-01-04T08:47:01.606Z,6.52
2023-01-04T08:49:28.663Z,6.53
2023-01-04T08:51:55.623Z,6.55
2023-01-04T08:54:25.214Z,6.60
2023-01-04T08:56:52.153Z,6.62
2023-01-04T08:59:19.307Z,6.66
2023-01-04T09:01:46.932Z,6.68
2023-01-04T09:04:14.263Z,6.71
2023-01-04T09:06:41.352Z,6.74
2023-01-04T09:09:08.346Z,6.76
2023-01-04T09:11:37.744Z,6.80
2023-01-04T09:14:08.413Z,6.82
2023-01-04T09:16:38.007Z,6.86
2023-01-04T09:19:05.734Z,6.89
2023-01-04T09:21:32.782Z,6.94
2023-01-04T09:23:59.845Z,6.96
2023-01-04T09:26:27.003Z,7.00
2023-01-04T09:28:55.869Z,7.03
2023-01-04T09:31:28.542Z,7.07
2023-01-04T09:34:15.147Z,7.12
2023-01-04T09:36:44.660Z,7.16
2023-01-04T09:39:20.845Z,7.20
2023-01-04T09:41:59.223Z,7.25
2023-01-04T09:45:03.207Z,7.31
2023-01-04T09:47:42.404Z,7.35
2023-01-04T09:50:31.754Z,7.43
2023-01-04T09:53:16.634Z,7.47
2023-01-04T09:55:49.530Z,7.52
2023-01-04T09:58:32.954Z,7.56
2023-01-04T10:01:05.156Z,7.61
2023-01-04T10:03:39.321Z,7.64
2023-01-04T10:06:12.290Z,7.65
2023-01-04T10:08:44.304Z,7.69
2023-01-04T10:11:46.441Z,7.74
2023-01-04T10:14:46.244Z,7.78
2023-01-04T10:18:33.926Z,7.82
2023-01-04T10:21:20.787Z,7.83
2023-01-04T10:23:38.004Z,7.87
2023-01-04T10:26:18.590Z,7.91
2023-01-04T10:29:26.971Z,7.96
2023-01-04T10:32:11.607Z,7.99
2023-01-04T10:34:45.976Z,8.03
2023-01-04T10:37:23.576Z,8.05
2023-01-04T10:39:55.046Z,8.08
2023-01-04T10:42:37.745Z,8.10
2023-01-04T10:45:16.938Z,8.14
2023-01-04T10:48:03.315Z,8.16
2023-01-04T10:50:38.937Z,8.21
2023-01-04T10:53:51.347Z,8.22
2023-01-04T10:56:37.292Z,8.24
2023-01-04T10:59:35.148Z,8.26
2023-01-04T11:02:39.801Z,8.29
2023-01-04T11:05:45.158Z,8.30
2023-01-04T11:08:30.535Z,8.31
2023-01-04T11:11:17.852Z,8.33
2023-01-04T11:13:44.835Z,8.35
2023-01-04T11:16:11.889Z,8.36
2023-01-04T11:18:42.565Z,8.37
2023-01-04T11:21:13.068Z,8.37
2023-01-04T11:23:40.137Z,8.37
2023-01-04T11:26:19.796Z,8.39
2023-01-04T11:29:00.266Z,8.40
2023-01-04T11:31:43.553Z,8.41
2023-01-04T11:34:10.544Z,8.42
2023-01-04T11:36:42.479Z,8.43
2023-01-04T11:39:23.938Z,8.44
2023-01-04T11:42:05.767Z,8.42
2023-01-04T11:44:35.186Z,8.44
2023-01-04T11:47:33.000Z,8.45
2023-01-04T11:50:00.235Z,8.46
2023-01-04T11:52:37.646Z,8.45
2023-01-04T11:55:29.699Z,8.48
2023-01-04T11:58:15.030Z,8.49
2023-01-04T12:00:57.205Z,8.49
2023-01-04T12:03:38.947Z,8.50
2023-01-04T12:06:22.665Z,8.50
2023-01-04T12:08:49.783Z,8.51
2023-01-04T12:11:39.723Z,8.52
2023-01-04T12:14:27.593Z,8.53
2023-01-04T12:17:23.124Z,8.54
2023-01-04T12:19:55.206Z,8.55
2023-01-04T12:22:30.774Z,8.57
2023-01-04T12:25:00.978Z,8.57
2023-01-04T12:27:28.775Z,8.58
2023-01-04T12:30:01.989Z,8.61
2023-01-04T12:32:28.982Z,8.63
2023-01-04T12:34:56.378Z,8.64
2023-01-04T12:37:40.483Z,8.65
2023-01-04T12:40:44.781Z,8.66
2023-01-04T12:43:17.389Z,8.68
2023-01-04T12:45:48.442Z,8.70
2023-01-04T12:48:46.063Z,8.72
2023-01-04T12:51:33.672Z,8.72
2023-01-04T12:54:05.729Z,8.76
2023-01-04T12:57:09.874Z,8.78
2023-01-04T13:00:00.526Z,8.81
2023-01-04T13:02:34.087Z,8.83
2023-01-04T13:05:55.560Z,8.86
2023-01-04T13:08:15.042Z,8.87
2023-01-04T13:10:51.509Z,8.91
2023-01-04T13:14:00.015Z,8.92
2023-01-04T13:17:13.106Z,8.95
2023-01-04T13:19:40.695Z,8.99
2023-01-04T13:22:29.713Z,9.02
2023-01-04T13:24:59.901Z,9.06
2023-01-04T13:27:27.880Z,9.09
2023-01-04T13:29:55.638Z,9.12
2023-01-04T13:32:28.885Z,9.14
2023-01-04T13:35:08.355Z,9.16
2023-01-04T13:37:49.517Z,9.18
2023-01-04T13:40:32.350Z,9.22
2023-01-04T13:43:44.413Z,9.24
2023-01-04T13:46:22.686Z,9.23
2023-01-04T13:48:53.818Z,9.24
2023-01-04T13:51:30.682Z,9.25
2023-01-04T13:54:06.432Z,9.24
2023-01-04T13:56:34.783Z,9.26
2023-01-04T13:59:01.961Z,9.28
2023-01-04T14:01:41.156Z,9.28
2023-01-04T14:04:26.212Z,9.30
2023-01-04T14:06:57.708Z,9.28
2023-01-04T14:09:29.723Z,9.28
2023-01-04T14:12:06.233Z,9.28
2023-01-04T14:14:38.691Z,9.26
2023-01-04T14:17:18.489Z,9.24
2023-01-04T14:20:00.284Z,9.21
2023-01-04T14:22:32.547Z,9.18
2023-01-04T14:25:22.685Z,9.11
2023-01-04T14:27:52.049Z,9.09
2023-01-04T14:30:18.863Z,9.07
2023-01-04T14:33:18.839Z,9.06
2023-01-04T14:35:48.862Z,9.02
2023-01-04T14:38:19.236Z,9.00
2023-01-04T14:40:46.652Z,9.00
2023-01-04T14:43:42.702Z,9.00
2023-01-04T14:46:10.439Z,8.99
2023-01-04T14:48:37.393Z,8.98
2023-01-04T14:51:05.257Z,8.99
2023-01-04T14:53:32.289Z,9.00
2023-01-04T14:55:59.292Z,9.02
2023-01-04T14:58:26.208Z,9.01
2023-01-04T15:00:53.099Z,9.03
2023-01-04T15:03:20.154Z,9.04
2023-01-04T15:05:47.471Z,9.05
2023-01-04T15:08:14.399Z,9.06
2023-01-04T15:10:41.327Z,9.07
2023-01-04T15:13:08.294Z,9.07
2023-01-04T15:15:35.368Z,9.07
2023-01-04T15:18:02.547Z,9.09
2023-01-04T15:20:29.546Z,9.09
2023-01-04T15:22:56.634Z,9.12
2023-01-04T15:25:23.711Z,9.13
2023-01-04T15:27:50.882Z,9.13
2023-01-04T15:30:17.816Z,9.17
2023-01-04T15:32:44.850Z,9.20
2023-01-04T15:35:16.034Z,9.22
2023-01-04T15:37:44.596Z,9.23
2023-01-04T15:40:17.125Z,9.26
2023-01-04T15:43:00.322Z,9.28
2023-01-04T15:45:29.406Z,9.32
2023-01-04T15:48:03.189Z,9.32
2023-01-04T15:50:34.037Z,9.34
2023-01-04T15:53:01.121Z,9.33
2023-01-04T15:55:36.038Z,9.35
2023-01-04T15:58:05.772Z,9.36
2023-01-04T16:00:32.940Z,9.38
2023-01-04T16:03:00.031Z,9.38
2023-01-04T16:05:27.023Z,9.40
2023-01-04T16:07:54.014Z,9.41
2023-01-04T16:10:21.184Z,9.43
2023-01-04T16:12:56.272Z,9.43
2023-01-04T16:15:24.063Z,9.42
2023-01-04T16:17:51.164Z,9.41
2023-01-04T16:20:18.880Z,9.40
2023-01-04T16:22:46.027Z,9.41
2023-01-04T16:25:14.142Z,9.41
2023-01-04T16:27:41.923Z,9.40
2023-01-04T16:30:13.709Z,9.38
2023-01-04T16:32:43.208Z,9.37
2023-01-04T16:35:11.030Z,9.36
2023-01-04T16:37:38.122Z,9.34
2023-01-04T16:40:07.840Z,9.35
2023-01-04T16:42:37.530Z,9.33
2023-01-04T16:45:05.727Z,9.31
2023-01-04T16:47:41.754Z,9.31
2023-01-04T16:50:10.965Z,9.30
2023-01-04T16:52:39.610Z,9.32
2023-01-04T16:55:07.976Z,9.29
2023-01-04T16:57:34.943Z,9.30
2023-01-04T17:00:02.198Z,9.28
2023-01-04T17:02:29.201Z,9.30
2023-01-04T17:04:59.420Z,9.29
2023-01-04T17:07:32.218Z,9.29
2023-01-04T17:10:02.134Z,9.28
2023-01-04T17:12:47.200Z,9.28
2023-01-04T17:15:41.918Z,9.29
2023-01-04T17:18:01.883Z,9.28
2023-01-04T17:20:28.811Z,9.29
2023-01-04T17:22:55.723Z,9.28
2023-01-04T17:25:22.660Z,9.28
2023-01-04T17:27:49.600Z,9.30
2023-01-04T17:30:16.585Z,9.32
2023-01-04T17:32:43.491Z,9.31
2023-01-04T17:35:10.394Z,9.32
2023-01-04T17:37:37.310Z,9.32
2023-01-04T17:40:04.698Z,9.31
2023-01-04T17:42:33.378Z,9.31
2023-01-04T17:45:00.291Z,9.30
2023-01-04T17:47:27.652Z,9.30
2023-01-04T17:49:54.657Z,9.30
2023-01-04T17:52:29.025Z,9.30
2023-01-04T17:54:58.029Z,9.29
2023-01-04T17:57:25.047Z,9.30
2023-01-04T17:59:52.031Z,9.27
2023-01-04T18:02:18.995Z,9.28
2023-01-04T18:04:46.013Z,9.26
2023-01-04T18:09:44.809Z,9.29
2023-01-04T18:12:11.711Z,9.27
2023-01-04T18:14:38.760Z,9.26
2023-01-04T18:17:06.044Z,9.25
2023-01-04T18:19:33.124Z,9.26
2023-01-04T18:22:00.203Z,9.25
2023-01-04T18:24:37.482Z,9.25
2023-01-04T18:27:23.840Z,9.25
2023-01-04T18:29:54.167Z,9.24
2023-01-04T18:32:22.984Z,9.23
2023-01-04T18:34:50.020Z,9.23
2023-01-04T18:37:18.464Z,9.23
2023-01-04T18:39:47.017Z,9.23
2023-01-04T18:42:14.074Z,9.23
2023-01-04T18:44:47.461Z,9.22
2023-01-04T18:47:20.840Z,9.21
2023-01-04T18:49:49.787Z,9.20
2023-01-04T18:52:18.156Z,9.20
2023-01-04T18:54:47.588Z,9.21
2023-01-04T18:57:14.540Z,9.21
2023-01-04T18:59:41.601Z,9.19
2023-01-04T19:02:15.923Z,9.20
2023-01-04T19:04:43.036Z,9.18
2023-01-04T19:07:09.992Z,9.20
2023-01-04T19:09:37.079Z,9.19
2023-01-04T19:12:04.189Z,9.17
2023-01-04T19:14:31.134Z,9.18
2023-01-04T19:16:58.089Z,9.17
2023-01-04T19:19:25.147Z,9.16
2023-01-04T19:21:52.138Z,9.14
2023-01-04T19:24:19.066Z,9.14
2023-01-04T19:26:45.977Z,9.13
2023-01-04T19:29:13.073Z,9.13
2023-01-04T19:31:40.032Z,9.13
2023-01-04T19:34:10.012Z,9.12
2023-01-04T19:36:37.105Z,9.12
2023-01-04T19:39:07.740Z,9.11
2023-01-04T19:41:37.449Z,9.14
2023-01-04T19:44:08.328Z,9.13
2023-01-04T19:46:38.049Z,9.12
2023-01-04T19:49:10.895Z,9.13
2023-01-04T19:51:44.315Z,9.13
2023-01-04T19:54:11.990Z,9.14
2023-01-04T19:56:39.703Z,9.16
2023-01-04T19:59:06.836Z,9.17
2023-01-04T20:01:34.009Z,9.19
2023-01-04T20:04:01.244Z,9.21
2023-01-04T20:06:28.286Z,9.24
2023-01-04T20:08:55.201Z,9.26
2023-01-04T20:11:22.133Z,9.28
2023-01-04T20:13:49.063Z,9.30
2023-01-04T20:16:16.142Z,9.30
2023-01-04T20:18:43.356Z,9.32
2023-01-04T20:21:13.652Z,9.32
2023-01-04T20:23:41.170Z,9.34
2023-01-04T20:26:15.870Z,9.36
2023-01-04T20:28:45.849Z,9.36
2023-01-04T20:31:16.859Z,9.37
2023-01-04T20:33:44.398Z,9.39
2023-01-04T20:36:18.632Z,9.39
2023-01-04T20:38:47.206Z,9.40
2023-01-04T20:41:20.548Z,9.41
2023-01-04T20:43:48.317Z,9.43
2023-01-04T20:46:39.550Z,9.45
2023-01-04T20:49:08.358Z,9.47
2023-01-04T20:51:35.266Z,9.49
2023-01-04T20:54:02.219Z,9.51
2023-01-04T20:56:32.334Z,9.52
2023-01-04T20:58:59.319Z,9.54
2023-01-04T21:01:26.448Z,9.55
2023-01-04T21:03:53.687Z,9.56
2023-01-04T21:06:24.958Z,9.58
2023-01-04T21:08:54.735Z,9.58
2023-01-04T21:11:22.613Z,9.60
2023-01-04T21:13:51.372Z,9.63
2023-01-04T21:16:18.473Z,9.65
2023-01-04T21:18:45.696Z,9.67
2023-01-04T21:21:17.480Z,9.68
2023-01-04T21:23:57.743Z,9.70
2023-01-04T21:26:25.141Z,9.71
2023-01-04T21:28:52.253Z,9.73
2023-01-04T21:31:26.194Z,9.76
2023-01-04T21:33:59.687Z,9.76
2023-01-04T21:36:36.553Z,9.77
2023-01-04T21:39:05.664Z,9.79
2023-01-04T21:41:32.675Z,9.81
2023-01-04T21:43:59.763Z,9.81
2023-01-04T21:46:29.478Z,9.82
2023-01-04T21:49:01.387Z,9.85
2023-01-04T21:51:38.508Z,9.85
2023-01-04T21:54:10.042Z,9.87
2023-01-04T21:56:39.732Z,9.89
2023-01-04T21:59:06.960Z,9.92
2023-01-04T22:01:35.337Z,9.96
2023-01-04T22:04:04.259Z,9.99
2023-01-04T22:09:16.839Z,10.04
2023-01-04T22:11:44.069Z,10.07
2023-01-04T22:14:11.080Z,10.08
2023-01-04T22:16:43.574Z,10.10
2023-01-04T22:19:17.126Z,10.10
2023-01-04T22:21:44.272Z,10.12
2023-01-04T22:24:13.369Z,10.14
2023-01-04T22:26:41.605Z,10.16
2023-01-04T22:29:09.979Z,10.17
2023-01-04T22:31:37.422Z,10.17
2023-01-04T22:34:04.370Z,10.18
2023-01-04T22:36:31.329Z,10.19
2023-01-04T22:38:58.587Z,10.19
2023-01-04T22:41:28.345Z,10.19
2023-01-04T22:44:04.887Z,10.20
2023-01-04T22:46:36.627Z,10.20
2023-01-04T22:49:04.356Z,10.21
2023-01-04T22:51:31.933Z,10.21
2023-01-04T22:54:02.038Z,10.19
2023-01-04T22:56:29.764Z,10.20
2023-01-04T22:58:58.137Z,10.20
2023-01-04T23:01:31.620Z,10.17
2023-01-04T23:04:00.887Z,10.17
2023-01-04T23:06:30.068Z,10.17
2023-01-04T23:09:01.747Z,10.15
2023-01-04T23:11:30.868Z,10.15
2023-01-04T23:13:58.442Z,10.13
2023-01-04T23:16:31.915Z,10.13
2023-01-04T23:19:04.990Z,10.15
2023-01-04T23:21:33.238Z,10.12
2023-01-04T23:24:01.106Z,10.12
2023-01-04T23:26:30.359Z,10.12
2023-01-04T23:28:58.617Z,10.13
2023-01-04T23:31:29.964Z,10.09
2023-01-04T23:34:02.261Z,10.12
2023-01-04T23:36:36.658Z,10.13
2023-01-04T23:39:08.889Z,10.12
2023-01-04T23:41:45.545Z,10.13
2023-01-04T23:44:20.242Z,10.13
2023-01-04T23:46:59.703Z,10.14
2023-01-04T23:49:29.145Z,10.15
2023-01-04T23:51:56.888Z,10.14
2023-01-04T23:54:24.357Z,10.15
2023-01-04T23:56:51.861Z,10.16
2023-01-04T23:59:19.493Z,10.15
